createdAt,value
2019-03-20T00:00:11.316Z,96276.09
2019-03-20T00:03:18.870Z,96278.78
2019-03-20T00:06:26.031Z,96284.92
2019-03-20T00:09:33.457Z,96280.56
2019-03-20T00:12:41.053Z,96282.17
2019-03-20T00:15:48.652Z,96292.48
2019-03-20T00:18:55.806Z,96304.52
2019-03-20T00:22:03.579Z,96306.20
2019-03-20T00:25:11.376Z,96294.53
2019-03-20T00:28:18.727Z,96301.63
2019-03-20T00:31:26.341Z,96305.36
2019-03-20T00:34:33.516Z,96305.58
2019-03-20T00:37:41.329Z,96307.88
2019-03-20T00:40:48.952Z,96295.35
2019-03-20T00:43:56.628Z,96303.77
2019-03-20T00:47:04.128Z,96306.52
2019-03-20T00:50:13.344Z,96308.03
2019-03-20T00:53:20.504Z,96307.00
2019-03-20T00:56:27.658Z,96313.10
2019-03-20T00:59:34.822Z,96309.11
2019-03-20T01:02:41.980Z,96314.50
2019-03-20T01:05:49.519Z,96303.36
2019-03-20T01:08:56.767Z,96300.02
2019-03-20T01:12:04.022Z,96302.31
2019-03-20T01:15:11.771Z,96297.23
2019-03-20T01:18:18.955Z,96295.84
2019-03-20T01:21:26.429Z,96300.87
2019-03-20T01:24:33.922Z,96294.98
2019-03-20T01:27:41.284Z,96298.92
2019-03-20T01:30:48.913Z,96304.84
2019-03-20T01:33:56.382Z,96303.53
2019-03-20T01:37:03.751Z,96296.48
2019-03-20T01:40:11.010Z,96293.13
2019-03-20T01:43:18.379Z,96292.69
2019-03-20T01:46:25.554Z,96298.32
2019-03-20T01:49:32.983Z,96296.91
2019-03-20T01:52:40.149Z,96292.84
2019-03-20T01:55:47.653Z,96299.22
2019-03-20T01:58:54.901Z,96299.00
2019-03-20T02:02:02.957Z,96290.30
2019-03-20T02:05:10.507Z,96297.94
2019-03-20T02:08:17.763Z,96293.05
2019-03-20T02:11:25.022Z,96292.92
2019-03-20T02:14:32.172Z,96292.82
2019-03-20T02:17:39.816Z,96294.50
2019-03-20T02:20:47.275Z,96286.09
2019-03-20T02:23:54.525Z,96289.31
2019-03-20T02:27:02.003Z,96289.03
2019-03-20T02:30:14.076Z,96287.09
2019-03-20T02:33:21.419Z,96294.60
2019-03-20T02:36:28.930Z,96290.45
2019-03-20T02:39:36.103Z,96290.44
2019-03-20T02:42:43.712Z,96293.64
2019-03-20T02:45:50.859Z,96288.02
2019-03-20T02:48:58.874Z,96288.37
2019-03-20T02:52:06.041Z,96287.91
2019-03-20T02:55:13.729Z,96281.20
2019-03-20T02:58:21.160Z,96287.83
2019-03-20T03:01:28.555Z,96280.55
2019-03-20T03:04:35.828Z,96281.77
2019-03-20T03:07:43.406Z,96279.05
2019-03-20T03:10:50.668Z,96274.73
2019-03-20T03:13:58.179Z,96282.41
2019-03-20T03:17:05.643Z,96279.44
2019-03-20T03:20:13.110Z,96282.89
2019-03-20T03:23:20.390Z,96286.56
2019-03-20T03:26:27.539Z,96278.23
2019-03-20T03:29:34.970Z,96282.09
2019-03-20T03:32:42.786Z,96285.50
2019-03-20T03:35:50.018Z,96286.61
2019-03-20T03:38:57.190Z,96288.13
2019-03-20T03:42:05.381Z,96296.66
2019-03-20T03:45:12.790Z,96294.65
2019-03-20T03:48:20.221Z,96296.83
2019-03-20T03:51:27.406Z,96302.25
2019-03-20T03:54:34.680Z,96299.53
2019-03-20T03:57:42.355Z,96297.43
2019-03-20T04:00:49.638Z,96300.83
2019-03-20T04:03:56.904Z,96310.41
2019-03-20T04:07:04.411Z,96307.84
2019-03-20T04:10:11.889Z,96309.53
2019-03-20T04:13:19.157Z,96314.44
2019-03-20T04:16:26.340Z,96315.19
2019-03-20T04:19:33.631Z,96322.76
2019-03-20T04:22:41.315Z,96315.91
2019-03-20T04:25:48.463Z,96329.00
2019-03-20T04:28:55.626Z,96331.58
2019-03-20T04:32:03.120Z,96331.23
2019-03-20T04:35:11.108Z,96334.98
2019-03-20T04:38:18.482Z,96337.66
2019-03-20T04:41:25.747Z,96334.78
2019-03-20T04:44:32.973Z,96339.55
2019-03-20T04:47:40.259Z,96339.12
2019-03-20T04:50:47.739Z,96345.98
2019-03-20T04:53:54.958Z,96345.33
2019-03-20T04:57:02.555Z,96345.03
2019-03-20T05:00:13.041Z,96352.50
2019-03-20T05:03:20.630Z,96358.48
2019-03-20T05:06:27.829Z,96349.66
2019-03-20T05:09:35.644Z,96354.58
2019-03-20T05:12:43.309Z,96352.84
2019-03-20T05:15:50.598Z,96356.46
2019-03-20T05:18:57.818Z,96365.64
2019-03-20T05:22:05.628Z,96370.27
2019-03-20T05:25:13.474Z,96372.95
2019-03-20T05:28:20.967Z,96380.13
2019-03-20T05:31:28.511Z,96390.03
2019-03-20T05:34:56.053Z,96390.52
2019-03-20T05:38:03.851Z,96394.93
2019-03-20T05:41:11.161Z,96400.33
2019-03-20T05:44:18.336Z,96407.98
2019-03-20T05:47:25.603Z,96402.91
2019-03-20T05:50:33.160Z,96408.01
2019-03-20T05:53:40.435Z,96407.55
2019-03-20T05:56:47.769Z,96415.80
2019-03-20T05:59:55.363Z,96416.25
2019-03-20T06:03:04.016Z,96420.14
2019-03-20T06:06:11.499Z,96420.52
2019-03-20T06:09:18.822Z,96427.88
2019-03-20T06:12:25.985Z,96432.29
2019-03-20T06:15:33.147Z,96432.29
2019-03-20T06:18:40.429Z,96431.19
2019-03-20T06:21:47.596Z,96438.72
2019-03-20T06:24:55.007Z,96445.32
2019-03-20T06:28:02.636Z,96442.69
2019-03-20T06:31:09.930Z,96446.95
2019-03-20T06:34:17.533Z,96447.05
2019-03-20T06:37:32.206Z,96449.23
2019-03-20T06:40:34.193Z,96454.10
2019-03-20T06:43:41.357Z,96452.86
2019-03-20T06:46:48.529Z,96451.77
2019-03-20T06:49:56.016Z,96458.29
2019-03-20T06:53:03.740Z,96459.69
2019-03-20T06:56:11.037Z,96460.09
2019-03-20T07:00:29.709Z,96457.17
2019-03-20T07:04:23.169Z,96459.63
2019-03-20T07:07:43.989Z,96456.51
2019-03-20T07:11:10.657Z,96458.05
2019-03-20T07:14:18.020Z,96461.31
2019-03-20T07:17:25.369Z,96464.39
2019-03-20T07:23:47.667Z,96465.14
2019-03-20T07:26:54.975Z,96463.95
2019-03-20T07:30:04.871Z,96464.46
2019-03-20T07:33:12.545Z,96473.01
2019-03-20T07:36:20.249Z,96478.02
2019-03-20T07:39:27.512Z,96477.48
2019-03-20T07:42:35.115Z,96482.27
2019-03-20T07:45:42.854Z,96489.84
2019-03-20T07:48:50.596Z,96496.27
2019-03-20T07:51:58.145Z,96493.70
2019-03-20T07:55:05.813Z,96487.06
2019-03-20T07:58:13.102Z,96488.92
2019-03-20T08:01:20.845Z,96483.31
2019-03-20T08:04:28.103Z,96485.99
2019-03-20T08:07:35.273Z,96484.01
2019-03-20T08:10:42.572Z,96479.06
2019-03-20T08:13:50.077Z,96486.17
2019-03-20T08:16:57.242Z,96485.62
2019-03-20T08:20:06.479Z,96486.45
2019-03-20T08:23:14.557Z,96491.26
2019-03-20T08:26:22.244Z,96491.02
2019-03-20T08:29:29.949Z,96492.04
2019-03-20T08:32:37.222Z,96490.59
2019-03-20T08:35:44.479Z,96487.34
2019-03-20T08:38:51.821Z,96491.83
2019-03-20T08:45:25.648Z,96492.73
2019-03-20T08:48:32.982Z,96494.20
2019-03-20T08:51:40.615Z,96500.69
2019-03-20T08:54:47.823Z,96499.48
2019-03-20T08:57:55.251Z,96502.86
2019-03-20T09:01:03.192Z,96501.72
2019-03-20T09:04:10.946Z,96500.73
2019-03-20T09:07:18.948Z,96506.50
2019-03-20T09:10:26.753Z,96506.42
2019-03-20T09:13:34.185Z,96496.36
2019-03-20T09:16:41.392Z,96506.59
2019-03-20T09:19:48.575Z,96502.84
2019-03-20T09:22:56.348Z,96511.13
2019-03-20T09:26:04.166Z,96504.41
2019-03-20T09:29:18.472Z,96504.93
2019-03-20T09:32:21.030Z,96506.47
2019-03-20T09:35:29.190Z,96499.72
2019-03-20T09:38:43.474Z,96505.14
2019-03-20T09:41:45.931Z,96504.39
2019-03-20T09:44:53.225Z,96503.83
2019-03-20T09:48:00.532Z,96508.79
2019-03-20T09:51:08.836Z,96504.91
2019-03-20T09:54:16.397Z,96502.87
2019-03-20T09:57:23.584Z,96507.48
2019-03-20T10:00:31.180Z,96505.39
2019-03-20T10:03:38.895Z,96506.77
2019-03-20T10:06:47.376Z,96506.56
2019-03-20T10:09:54.931Z,96504.41
2019-03-20T10:13:02.146Z,96502.86
2019-03-20T10:16:09.400Z,96502.95
2019-03-20T10:19:17.230Z,96504.27
2019-03-20T10:22:24.403Z,96505.77
2019-03-20T10:25:31.671Z,96502.93
2019-03-20T10:28:39.477Z,96497.75
2019-03-20T10:31:47.085Z,96503.86
2019-03-20T10:34:54.549Z,96505.69
2019-03-20T10:38:02.138Z,96510.48
2019-03-20T10:41:09.986Z,96509.52
2019-03-20T10:44:17.310Z,96508.33
2019-03-20T10:47:24.508Z,96510.72
2019-03-20T10:50:32.097Z,96511.62
2019-03-20T10:53:39.784Z,96513.30
2019-03-20T10:56:47.195Z,96515.91
2019-03-20T10:59:54.713Z,96512.29
2019-03-20T11:03:02.421Z,96510.98
2019-03-20T11:06:09.878Z,96514.84
2019-03-20T11:09:18.529Z,96508.92
2019-03-20T11:12:26.518Z,96519.31
2019-03-20T11:15:34.023Z,96519.92
2019-03-20T11:18:41.604Z,96514.18
2019-03-20T11:21:49.316Z,96516.84
2019-03-20T11:24:57.239Z,96516.55
2019-03-20T11:28:04.674Z,96524.81
2019-03-20T11:31:12.272Z,96523.59
2019-03-20T11:34:20.310Z,96531.14
2019-03-20T11:37:28.034Z,96524.97
2019-03-20T11:40:35.638Z,96522.48
2019-03-20T11:43:42.962Z,96530.64
2019-03-20T11:46:50.409Z,96526.84
2019-03-20T11:49:58.302Z,96527.25
2019-03-20T11:53:05.883Z,96530.25
2019-03-20T11:56:13.296Z,96530.64
2019-03-20T11:59:20.868Z,96522.78
2019-03-20T12:02:28.693Z,96518.02
2019-03-20T12:05:36.033Z,96526.21
2019-03-20T12:08:43.451Z,96519.69
2019-03-20T12:11:50.670Z,96516.25
2019-03-20T12:14:58.226Z,96524.70
2019-03-20T12:18:05.634Z,96518.80
2019-03-20T12:21:13.040Z,96523.34
2019-03-20T12:24:20.875Z,96520.84
2019-03-20T12:27:28.633Z,96520.38
2019-03-20T12:30:36.591Z,96511.09
2019-03-20T12:33:44.789Z,96505.82
2019-03-20T12:36:52.307Z,96503.31
2019-03-20T12:39:59.775Z,96508.03
2019-03-20T12:43:07.667Z,96507.20
2019-03-20T12:46:15.134Z,96497.78
2019-03-20T12:49:22.636Z,96493.45
2019-03-20T12:52:30.041Z,96501.50
2019-03-20T12:55:37.254Z,96491.52
2019-03-20T12:58:44.566Z,96492.52
2019-03-20T13:01:52.139Z,96489.58
2019-03-20T13:04:59.664Z,96490.11
2019-03-20T13:08:07.304Z,96487.19
2019-03-20T13:11:15.114Z,96479.35
2019-03-20T13:14:22.914Z,96479.81
2019-03-20T13:17:30.391Z,96483.89
2019-03-20T13:20:37.901Z,96481.39
2019-03-20T13:23:45.272Z,96473.64
2019-03-20T13:26:52.932Z,96473.56
2019-03-20T13:30:00.866Z,96477.19
2019-03-20T13:33:09.118Z,96472.37
2019-03-20T13:36:16.454Z,96469.06
2019-03-20T13:39:24.148Z,96468.66
2019-03-20T13:42:31.454Z,96468.47
2019-03-20T13:45:39.119Z,96463.66
2019-03-20T13:48:46.692Z,96462.38
2019-03-20T13:51:54.766Z,96461.17
2019-03-20T13:55:02.318Z,96464.08
2019-03-20T13:58:09.631Z,96464.24
2019-03-20T14:01:17.792Z,96459.99
2019-03-20T14:04:25.914Z,96467.61
2019-03-20T14:07:33.499Z,96466.09
2019-03-20T14:10:50.341Z,96465.10
2019-03-20T14:13:50.847Z,96462.77
2019-03-20T14:16:58.613Z,96458.45
2019-03-20T14:20:10.149Z,96458.45
2019-03-20T14:23:17.682Z,96457.20
2019-03-20T14:26:25.586Z,96456.63
2019-03-20T14:29:33.076Z,96455.69
2019-03-20T14:32:41.020Z,96456.03
2019-03-20T14:35:48.964Z,96450.96
2019-03-20T14:38:56.365Z,96452.50
2019-03-20T14:42:03.998Z,96447.16
2019-03-20T14:45:13.019Z,96438.56
2019-03-20T14:48:20.974Z,96442.68
2019-03-20T14:51:28.590Z,96444.50
2019-03-20T14:54:36.099Z,96444.24
2019-03-20T14:57:44.686Z,96439.88
2019-03-20T15:00:52.801Z,96433.20
2019-03-20T15:04:00.811Z,96437.17
2019-03-20T15:07:08.638Z,96437.76
2019-03-20T15:10:17.892Z,96444.69
2019-03-20T15:13:25.677Z,96434.94
2019-03-20T15:16:33.551Z,96439.16
2019-03-20T15:19:41.005Z,96432.56
2019-03-20T15:22:48.602Z,96436.52
2019-03-20T15:25:57.391Z,96439.17
2019-03-20T15:29:05.146Z,96439.17
2019-03-20T15:32:12.868Z,96436.58
2019-03-20T15:35:21.397Z,96438.20
2019-03-20T15:38:29.810Z,96437.47
2019-03-20T15:41:37.748Z,96431.92
2019-03-20T15:44:45.393Z,96435.03
2019-03-20T15:47:53.078Z,96439.23
2019-03-20T15:51:00.556Z,96440.02
2019-03-20T15:54:08.341Z,96434.30
2019-03-20T15:57:15.924Z,96423.81
2019-03-20T16:00:23.465Z,96433.86
2019-03-20T16:03:31.274Z,96433.12
2019-03-20T16:06:38.828Z,96432.09
2019-03-20T16:09:46.243Z,96429.98
2019-03-20T16:12:54.774Z,96440.30
2019-03-20T16:16:02.753Z,96440.87
2019-03-20T16:19:11.200Z,96441.70
2019-03-20T16:22:18.841Z,96442.22
2019-03-20T16:25:26.348Z,96442.75
2019-03-20T16:28:34.003Z,96445.98
2019-03-20T16:31:41.639Z,96455.23
2019-03-20T16:34:48.977Z,96454.20
2019-03-20T16:37:56.819Z,96457.66
2019-03-20T16:41:05.116Z,96455.55
2019-03-20T16:44:13.730Z,96450.87
2019-03-20T16:47:21.473Z,96461.71
2019-03-20T16:50:29.560Z,96466.49
2019-03-20T16:53:37.411Z,96471.76
2019-03-20T16:56:45.957Z,96470.20
2019-03-20T16:59:54.823Z,96472.59
2019-03-20T17:03:02.755Z,96477.84
2019-03-20T17:06:10.427Z,96469.42
2019-03-20T17:09:17.874Z,96476.80
2019-03-20T17:12:26.357Z,96486.29
2019-03-20T17:15:34.264Z,96493.13
2019-03-20T17:18:41.618Z,96492.81
2019-03-20T17:21:49.676Z,96492.50
2019-03-20T17:24:57.304Z,96494.59
2019-03-20T17:28:05.614Z,96503.74
2019-03-20T17:31:13.050Z,96506.55
2019-03-20T17:34:20.997Z,96509.70
2019-03-20T17:37:28.630Z,96515.16
2019-03-20T17:40:36.396Z,96515.39
2019-03-20T17:43:44.428Z,96518.51
2019-03-20T17:46:51.837Z,96524.56
2019-03-20T17:50:00.343Z,96525.45
2019-03-20T17:53:08.075Z,96524.62
2019-03-20T17:56:15.455Z,96516.38
2019-03-20T17:59:23.114Z,96514.20
2019-03-20T18:02:30.574Z,96526.70
2019-03-20T18:05:38.458Z,96526.94
2019-03-20T18:08:45.832Z,96531.47
2019-03-20T18:11:53.630Z,96532.25
2019-03-20T18:15:01.315Z,96538.77
2019-03-20T18:18:08.831Z,96541.25
2019-03-20T18:21:16.139Z,96540.06
2019-03-20T18:24:23.415Z,96542.70
2019-03-20T18:27:31.095Z,96545.61
2019-03-20T18:30:39.261Z,96538.31
2019-03-20T18:33:47.005Z,96532.89
2019-03-20T18:36:54.604Z,96531.48
2019-03-20T18:40:03.134Z,96540.43
2019-03-20T18:43:10.755Z,96545.04
2019-03-20T18:46:19.498Z,96549.44
2019-03-20T18:49:27.067Z,96554.05
2019-03-20T18:52:34.604Z,96558.78
2019-03-20T18:55:42.177Z,96569.59
2019-03-20T18:58:49.728Z,96574.19
2019-03-20T19:01:57.571Z,96585.55
2019-03-20T19:05:08.040Z,96580.31
2019-03-20T19:08:15.774Z,96573.54
2019-03-20T19:11:23.488Z,96570.49
2019-03-20T19:14:31.290Z,96574.59
2019-03-20T19:17:39.231Z,96566.55
2019-03-20T19:20:46.679Z,96568.81
2019-03-20T19:23:54.391Z,96569.32
2019-03-20T19:27:01.783Z,96576.92
2019-03-20T19:30:14.702Z,96582.73
2019-03-20T19:33:22.401Z,96578.70
2019-03-20T19:36:29.898Z,96573.54
2019-03-20T19:39:37.407Z,96578.19
2019-03-20T19:42:45.197Z,96572.76
2019-03-20T19:45:52.746Z,96582.02
2019-03-20T19:49:00.224Z,96576.39
2019-03-20T19:52:07.897Z,96574.00
2019-03-20T19:55:15.725Z,96581.96
2019-03-20T19:58:23.903Z,96574.89
2019-03-20T20:01:31.760Z,96578.02
2019-03-20T20:04:39.534Z,96582.67
2019-03-20T20:07:47.971Z,96585.25
2019-03-20T20:10:59.330Z,96588.77
2019-03-20T20:14:07.449Z,96595.70
2019-03-20T20:17:15.700Z,96592.15
2019-03-20T20:20:24.563Z,96590.91
2019-03-20T20:23:31.896Z,96588.18
2019-03-20T20:26:39.932Z,96593.86
2019-03-20T20:29:47.374Z,96592.64
2019-03-20T20:32:55.345Z,96592.20
2019-03-20T20:36:03.122Z,96593.56
2019-03-20T20:39:11.164Z,96595.98
2019-03-20T20:42:18.846Z,96596.73
2019-03-20T20:45:26.656Z,96603.14
2019-03-20T20:48:34.652Z,96608.88
2019-03-20T20:51:42.228Z,96605.44
2019-03-20T20:54:50.214Z,96613.27
2019-03-20T20:57:58.374Z,96613.00
2019-03-20T21:01:05.931Z,96621.20
2019-03-20T21:04:13.784Z,96624.20
2019-03-20T21:07:21.740Z,96626.14
2019-03-20T21:10:29.525Z,96624.86
2019-03-20T21:13:37.636Z,96626.20
2019-03-20T21:16:45.880Z,96627.64
2019-03-20T21:19:54.281Z,96619.68
2019-03-20T21:24:03.770Z,96614.67
2019-03-20T21:28:29.656Z,96621.87
2019-03-20T21:31:54.762Z,96631.56
2019-03-20T21:36:10.624Z,96631.22
2019-03-20T21:39:19.378Z,96632.64
2019-03-20T21:43:29.908Z,96627.58
2019-03-20T21:47:24.710Z,96633.81
2019-03-20T21:51:13.525Z,96625.64
2019-03-20T21:55:25.753Z,96622.73
2019-03-20T21:59:23.325Z,96619.69
2019-03-20T22:02:45.852Z,96619.26
2019-03-20T22:06:50.863Z,96610.35
2019-03-20T22:11:24.732Z,96611.21
2019-03-20T22:14:33.354Z,96613.14
2019-03-20T22:18:58.706Z,96606.48
2019-03-20T22:22:48.742Z,96609.44
2019-03-20T22:27:05.109Z,96609.28
2019-03-20T22:30:13.658Z,96609.30
2019-03-20T22:34:23.451Z,96603.13
2019-03-20T22:37:31.681Z,96606.46
2019-03-20T22:41:43.707Z,96598.88
2019-03-20T22:45:14.530Z,96595.95
2019-03-20T22:48:56.752Z,96591.88
2019-03-20T22:52:58.198Z,96585.80
2019-03-20T22:57:06.400Z,96591.16
2019-03-20T23:00:15.362Z,96592.29
2019-03-20T23:03:37.919Z,96588.73
2019-03-20T23:06:46.162Z,96586.28
2019-03-20T23:09:55.137Z,96581.86
2019-03-20T23:13:03.417Z,96582.58
2019-03-20T23:16:15.235Z,96583.53
2019-03-20T23:19:23.349Z,96582.58
2019-03-20T23:22:32.175Z,96581.42
2019-03-20T23:25:40.923Z,96574.91
2019-03-20T23:28:49.447Z,96580.92
2019-03-20T23:31:57.861Z,96580.18
2019-03-20T23:35:06.772Z,96584.80
2019-03-20T23:38:15.018Z,96578.14
2019-03-20T23:41:23.120Z,96585.42
2019-03-20T23:44:32.235Z,96584.26
2019-03-20T23:47:57.898Z,96582.06
2019-03-20T23:51:10.693Z,96576.26
2019-03-20T23:54:24.167Z,96577.11
2019-03-20T23:57:32.246Z,96574.81
